Time;durP1;ratioP1;P1;durP2;ratioP2;P2;SDS_P1;SDS_P2;PMS_P1;PMS_P2;Temp;Humidity;BMP_temperature;BMP_pressure;BME280_temperature;BME280_humidity;BME280_pressure;Samples;Min_cycle;Max_cycle;Signal;HPM_P1;HPM_P2
2023/06/10 00:00:01;;;;;;;8.18;5.75;;;;;;;;;;5034737;28;92568;-72
2023/06/10 00:02:27;;;;;;;11.15;6.18;;;;;;;;;;5034853;28;93678;-71
2023/06/10 00:04:55;;;;;;;8.73;5.57;;;;;;;;;;5035409;27;93118;-71
2023/06/10 00:07:21;;;;;;;14.18;6.00;;;;;;;;;;5037584;27;92600;-71
2023/06/10 00:09:48;;;;;;;8.95;5.50;;;;;;;;;;5035173;28;92746;-71
2023/06/10 00:12:16;;;;;;;13.00;5.75;;;;;;;;;;5034506;28;92480;-71
2023/06/10 00:14:43;;;;;;;11.75;5.95;;;;;;;;;;5034510;28;93190;-70
2023/06/10 00:17:09;;;;;;;9.52;5.38;;;;;;;;;;5032620;27;95893;-72
2023/06/10 00:19:36;;;;;;;9.98;5.88;;;;;;;;;;5034776;28;92810;-71
2023/06/10 00:22:02;;;;;;;11.52;6.07;;;;;;;;;;5034216;28;93268;-71
2023/06/10 00:24:31;;;;;;;8.98;5.55;;;;;;;;;;5034628;27;93510;-71
2023/06/10 00:26:57;;;;;;;19.88;6.70;;;;;;;;;;5034160;27;92510;-71
2023/06/10 00:29:23;;;;;;;10.32;5.75;;;;;;;;;;5037321;28;93206;-71
2023/06/10 00:31:50;;;;;;;12.02;5.25;;;;;;;;;;5034366;28;92518;-71
2023/06/10 00:34:16;;;;;;;11.30;6.05;;;;;;;;;;5035059;28;93024;-71
2023/06/10 00:36:43;;;;;;;18.27;6.28;;;;;;;;;;5033930;28;93447;-71
2023/06/10 00:39:09;;;;;;;13.63;5.60;;;;;;;;;;5034098;28;92681;-71
2023/06/10 00:41:36;;;;;;;10.30;6.25;;;;;;;;;;5032664;28;94863;-71
2023/06/10 00:44:02;;;;;;;6.85;5.25;;;;;;;;;;5034161;28;94707;-71
2023/06/10 00:46:29;;;;;;;10.75;5.53;;;;;;;;;;5034179;28;92486;-71
2023/06/10 00:48:56;;;;;;;7.05;5.25;;;;;;;;;;5034054;28;93177;-71
2023/06/10 00:51:22;;;;;;;10.70;5.57;;;;;;;;;;5019154;28;93514;-71
2023/06/10 00:53:49;;;;;;;10.27;5.18;;;;;;;;;;5033023;28;93336;-71
2023/06/10 00:56:16;;;;;;;11.73;5.35;;;;;;;;;;5033761;28;93478;-71
2023/06/10 00:58:42;;;;;;;10.18;5.28;;;;;;;;;;5034352;28;91689;-71
2023/06/10 01:01:10;;;;;;;11.00;5.28;;;;;;;;;;5034183;27;92608;-71
2023/06/10 01:03:38;;;;;;;11.95;5.22;;;;;;;;;;5037543;27;94377;-71
2023/06/10 01:06:08;;;;;;;7.80;5.28;;;;;;;;;;5036418;28;94849;-71
2023/06/10 01:08:45;;;;;;;12.63;5.32;;;;;;;;;;5037572;27;95706;-71
2023/06/10 01:11:17;;;;;;;8.55;5.28;;;;;;;;;;5037391;27;93578;-71
2023/06/10 01:13:43;;;;;;;8.15;5.43;;;;;;;;;;5040338;28;92469;-71
2023/06/10 01:16:10;;;;;;;11.15;5.43;;;;;;;;;;5037438;28;94656;-71
2023/06/10 01:18:38;;;;;;;8.63;5.25;;;;;;;;;;5037336;28;92519;-71
2023/06/10 01:21:04;;;;;;;13.20;5.22;;;;;;;;;;5037744;28;92541;-71
2023/06/10 01:23:31;;;;;;;8.48;5.40;;;;;;;;;;5037371;28;92797;-71
2023/06/10 01:26:08;;;;;;;9.18;5.25;;;;;;;;;;5018820;28;92559;-71
2023/06/10 01:29:07;;;;;;;12.57;5.53;;;;;;;;;;5037257;28;93263;-72
2023/06/10 01:31:38;;;;;;;12.82;5.32;;;;;;;;;;4979717;28;95811;-71
2023/06/10 01:34:10;;;;;;;7.50;5.13;;;;;;;;;;5040703;27;92727;-71
2023/06/10 01:36:37;;;;;;;10.35;5.07;;;;;;;;;;5037119;28;93493;-71
2023/06/10 01:39:04;;;;;;;12.18;6.07;;;;;;;;;;5036689;27;92514;-71
2023/06/10 01:41:31;;;;;;;11.40;5.25;;;;;;;;;;5037213;27;93148;-71
2023/06/10 01:43:58;;;;;;;6.95;5.40;;;;;;;;;;5036682;28;93411;-71
2023/06/10 01:46:24;;;;;;;7.45;5.22;;;;;;;;;;5036803;28;92487;-71
2023/06/10 01:48:50;;;;;;;15.70;5.65;;;;;;;;;;5037778;28;94510;-70
2023/06/10 01:51:17;;;;;;;9.13;5.63;;;;;;;;;;5036840;28;93351;-71
2023/06/10 01:53:43;;;;;;;14.20;5.50;;;;;;;;;;5036384;27;92509;-71
2023/06/10 01:56:09;;;;;;;15.65;5.70;;;;;;;;;;5038678;28;94855;-71
2023/06/10 01:58:36;;;;;;;10.35;5.63;;;;;;;;;;5036594;28;92513;-71
2023/06/10 02:01:03;;;;;;;11.27;5.45;;;;;;;;;;5036508;28;93209;-71
2023/06/10 02:03:29;;;;;;;9.73;4.57;;;;;;;;;;5036315;27;93419;-71
2023/06/10 02:05:56;;;;;;;9.50;5.38;;;;;;;;;;5036751;28;92461;-71
2023/06/10 02:08:22;;;;;;;8.63;5.15;;;;;;;;;;5036481;28;93191;-71
2023/06/10 02:10:48;;;;;;;9.52;5.47;;;;;;;;;;5018617;28;93306;-71
2023/06/10 02:13:15;;;;;;;11.43;6.13;;;;;;;;;;5035699;27;91689;-71
2023/06/10 02:15:41;;;;;;;13.93;5.60;;;;;;;;;;5036347;28;92478;-71
2023/06/10 02:18:07;;;;;;;14.82;5.47;;;;;;;;;;5039185;27;93510;-71
2023/06/10 02:20:34;;;;;;;9.38;5.28;;;;;;;;;;5034868;28;94874;-71
2023/06/10 02:23:00;;;;;;;8.73;5.10;;;;;;;;;;5036088;27;93431;-71
2023/06/10 02:25:26;;;;;;;14.18;5.93;;;;;;;;;;5036147;28;92585;-70
2023/06/10 02:27:53;;;;;;;7.88;5.20;;;;;;;;;;5018512;28;93238;-71
2023/06/10 02:30:19;;;;;;;10.88;5.68;;;;;;;;;;5036322;28;93638;-70
2023/06/10 02:32:47;;;;;;;10.73;5.40;;;;;;;;;;5036642;27;92704;-71
2023/06/10 02:35:14;;;;;;;11.57;6.20;;;;;;;;;;5036995;28;93804;-71
2023/06/10 02:37:41;;;;;;;9.57;5.75;;;;;;;;;;5036908;28;93050;-71
2023/06/10 02:40:08;;;;;;;8.75;5.45;;;;;;;;;;5039075;27;92496;-71
2023/06/10 02:42:34;;;;;;;22.42;5.88;;;;;;;;;;5036032;28;93947;-71
2023/06/10 02:45:01;;;;;;;15.95;5.97;;;;;;;;;;5034351;28;94854;-71
2023/06/10 02:47:27;;;;;;;11.55;5.70;;;;;;;;;;5036354;27;95370;-71
2023/06/10 02:49:54;;;;;;;8.98;5.95;;;;;;;;;;5035623;28;94566;-71
2023/06/10 02:52:20;;;;;;;9.38;5.93;;;;;;;;;;5035914;27;92765;-71
2023/06/10 02:54:46;;;;;;;11.00;6.25;;;;;;;;;;5035911;27;93187;-70
2023/06/10 02:57:14;;;;;;;10.38;6.32;;;;;;;;;;5036027;28;94475;-70
2023/06/10 02:59:40;;;;;;;11.40;6.40;;;;;;;;;;5035737;28;92488;-71
2023/06/10 03:02:07;;;;;;;12.85;6.35;;;;;;;;;;5038985;28;93144;-70
2023/06/10 03:04:33;;;;;;;13.40;6.20;;;;;;;;;;5035496;28;92469;-71
2023/06/10 03:07:03;;;;;;;10.77;6.25;;;;;;;;;;5035709;28;93338;-71
2023/06/10 03:09:29;;;;;;;11.60;5.93;;;;;;;;;;5033657;27;95971;-70
2023/06/10 03:11:56;;;;;;;15.50;6.25;;;;;;;;;;5035711;28;92446;-71
2023/06/10 03:14:22;;;;;;;12.35;6.00;;;;;;;;;;5035473;28;93673;-70
2023/06/10 03:16:48;;;;;;;11.68;6.05;;;;;;;;;;5035176;28;93819;-71
2023/06/10 03:19:15;;;;;;;11.27;6.10;;;;;;;;;;5035537;28;92407;-71
2023/06/10 03:21:43;;;;;;;15.38;6.22;;;;;;;;;;5038518;28;93206;-71
2023/06/10 03:24:10;;;;;;;8.68;5.93;;;;;;;;;;5034581;27;92793;-74
2023/06/10 03:26:37;;;;;;;10.43;5.53;;;;;;;;;;5035029;27;93121;-71
2023/06/10 03:29:03;;;;;;;19.02;7.00;;;;;;;;;;5034986;28;93508;-71
2023/06/10 03:31:30;;;;;;;13.23;6.03;;;;;;;;;;5035511;28;92559;-71
2023/06/10 03:33:58;;;;;;;17.45;6.50;;;;;;;;;;5033537;28;94763;-71
2023/06/10 03:36:28;;;;;;;13.20;6.72;;;;;;;;;;5035120;28;94844;-71
2023/06/10 03:38:56;;;;;;;11.82;6.53;;;;;;;;;;5034844;28;92468;-71
2023/06/10 03:41:23;;;;;;;11.10;5.57;;;;;;;;;;5034815;28;93224;-71
2023/06/10 03:43:49;;;;;;;8.27;5.70;;;;;;;;;;5038289;28;94443;-71
2023/06/10 03:46:17;;;;;;;13.25;6.53;;;;;;;;;;5035058;27;93606;-71
2023/06/10 03:48:44;;;;;;;10.88;5.75;;;;;;;;;;5034489;27;93615;-71
2023/06/10 03:51:10;;;;;;;10.23;6.40;;;;;;;;;;5035424;28;92034;-71
2023/06/10 03:53:36;;;;;;;10.52;5.70;;;;;;;;;;5034957;28;92531;-70
2023/06/10 03:56:03;;;;;;;14.73;5.85;;;;;;;;;;5034451;27;93498;-71
2023/06/10 03:58:29;;;;;;;11.52;5.85;;;;;;;;;;5033298;27;94899;-70
2023/06/10 04:00:55;;;;;;;9.88;6.32;;;;;;;;;;5034404;28;95737;-71
2023/06/10 04:03:22;;;;;;;10.82;5.80;;;;;;;;;;5034663;28;93466;-71
2023/06/10 04:05:50;;;;;;;14.80;5.93;;;;;;;;;;5037945;28;92491;-71
2023/06/10 04:08:16;;;;;;;19.88;7.07;;;;;;;;;;5034859;28;94494;-70
2023/06/10 04:10:43;;;;;;;14.77;6.05;;;;;;;;;;5034357;28;92407;-70
2023/06/10 04:13:10;;;;;;;19.50;6.00;;;;;;;;;;5034535;28;93062;-71
2023/06/10 04:15:36;;;;;;;13.80;5.60;;;;;;;;;;5034752;28;93024;-71
2023/06/10 04:18:03;;;;;;;10.65;6.07;;;;;;;;;;5034319;28;92528;-71
2023/06/10 04:20:29;;;;;;;12.05;5.78;;;;;;;;;;5016312;28;93095;-71
2023/06/10 04:22:55;;;;;;;10.25;6.05;;;;;;;;;;5032532;28;95961;-70
2023/06/10 04:25:22;;;;;;;13.63;6.10;;;;;;;;;;5033785;28;92619;-70
2023/06/10 04:27:49;;;;;;;10.70;5.80;;;;;;;;;;5019013;28;93351;-71
2023/06/10 04:30:16;;;;;;;9.20;5.35;;;;;;;;;;5016566;28;92471;-71
2023/06/10 04:32:43;;;;;;;17.45;6.65;;;;;;;;;;5034807;28;94464;-70
2023/06/10 04:35:11;;;;;;;16.30;6.57;;;;;;;;;;5034186;27;92434;-71
2023/06/10 04:37:38;;;;;;;17.83;5.82;;;;;;;;;;5033637;28;92425;-71
2023/06/10 04:40:05;;;;;;;14.43;6.60;;;;;;;;;;5034640;28;93225;-71
2023/06/10 04:42:31;;;;;;;14.25;5.55;;;;;;;;;;5034093;27;94531;-71
2023/06/10 04:44:58;;;;;;;16.05;5.75;;;;;;;;;;5034105;28;92414;-70
2023/06/10 04:47:24;;;;;;;16.42;6.53;;;;;;;;;;5032306;28;95822;-71
2023/06/10 04:49:51;;;;;;;11.50;6.00;;;;;;;;;;5037161;28;93488;-70
2023/06/10 04:52:17;;;;;;;10.88;6.20;;;;;;;;;;5033713;28;93005;-71
2023/06/10 04:54:44;;;;;;;14.70;5.63;;;;;;;;;;5015861;28;93439;-70
2023/06/10 04:57:11;;;;;;;15.30;6.25;;;;;;;;;;5034406;27;92626;-71
2023/06/10 04:59:38;;;;;;;17.08;6.47;;;;;;;;;;5033754;28;93788;-71
2023/06/10 05:02:04;;;;;;;11.55;6.30;;;;;;;;;;5033968;28;94749;-70
2023/06/10 05:04:31;;;;;;;13.05;6.18;;;;;;;;;;5034324;28;91698;-71
2023/06/10 05:06:57;;;;;;;13.60;5.95;;;;;;;;;;5033599;28;92758;-71
2023/06/10 05:09:25;;;;;;;13.00;5.85;;;;;;;;;;5034099;28;94426;-71
2023/06/10 05:11:53;;;;;;;20.33;6.40;;;;;;;;;;5035189;28;94795;-70
2023/06/10 05:14:20;;;;;;;16.98;5.55;;;;;;;;;;5033861;28;94358;-71
2023/06/10 05:16:50;;;;;;;15.07;7.78;;;;;;;;;;5033462;28;92466;-71
2023/06/10 05:19:16;;;;;;;14.48;6.55;;;;;;;;;;5033818;28;93118;-70
2023/06/10 05:21:43;;;;;;;11.88;6.25;;;;;;;;;;5033231;28;93508;-70
2023/06/10 05:24:10;;;;;;;13.07;6.22;;;;;;;;;;5033998;28;92404;-71
2023/06/10 05:26:37;;;;;;;11.35;6.13;;;;;;;;;;5033500;28;94178;-71
2023/06/10 05:29:04;;;;;;;13.10;6.18;;;;;;;;;;5033595;28;92794;-71
2023/06/10 05:31:31;;;;;;;13.38;5.72;;;;;;;;;;5036998;28;92436;-70
2023/06/10 05:33:58;;;;;;;17.38;5.90;;;;;;;;;;5033366;28;93309;-70
2023/06/10 05:36:26;;;;;;;13.63;5.97;;;;;;;;;;5032069;28;95023;-71
2023/06/10 05:38:52;;;;;;;14.18;6.20;;;;;;;;;;5033750;28;96647;-71
2023/06/10 05:41:18;;;;;;;17.75;6.80;;;;;;;;;;5033203;28;94043;-71
2023/06/10 05:43:45;;;;;;;18.02;6.75;;;;;;;;;;5033248;27;92457;-71
2023/06/10 05:46:11;;;;;;;12.68;6.55;;;;;;;;;;5032792;28;93181;-70
2023/06/10 05:48:38;;;;;;;22.92;5.80;;;;;;;;;;5035525;27;93458;-70
2023/06/10 05:51:04;;;;;;;15.38;6.45;;;;;;;;;;5036393;27;93615;-71
2023/06/10 05:53:31;;;;;;;14.57;6.28;;;;;;;;;;5040330;27;93717;-70
2023/06/10 05:55:58;;;;;;;15.13;6.78;;;;;;;;;;5036493;28;92491;-70
2023/06/10 05:58:24;;;;;;;19.38;7.20;;;;;;;;;;5036863;28;93330;-71
2023/06/10 06:00:50;;;;;;;18.13;6.93;;;;;;;;;;5034450;28;95989;-70
2023/06/10 06:03:17;;;;;;;20.27;6.00;;;;;;;;;;5036804;28;92467;-71
2023/06/10 06:05:44;;;;;;;12.27;6.47;;;;;;;;;;5036057;28;93155;-71
2023/06/10 06:08:10;;;;;;;19.30;6.90;;;;;;;;;;5036195;28;93611;-71
2023/06/10 06:10:36;;;;;;;13.27;6.03;;;;;;;;;;5036829;28;92430;-71
2023/06/10 06:13:03;;;;;;;21.23;6.45;;;;;;;;;;5036237;28;93141;-71
2023/06/10 06:15:29;;;;;;;10.35;6.35;;;;;;;;;;5039241;28;93490;-71
2023/06/10 06:17:56;;;;;;;11.95;5.88;;;;;;;;;;5036741;28;93263;-71
2023/06/10 06:20:22;;;;;;;17.55;6.80;;;;;;;;;;5035956;27;93548;-71
2023/06/10 06:22:49;;;;;;;15.98;6.50;;;;;;;;;;5036051;28;92406;-71
2023/06/10 06:25:15;;;;;;;17.98;7.20;;;;;;;;;;5034296;27;94840;-71
2023/06/10 06:27:41;;;;;;;12.35;6.22;;;;;;;;;;5035953;27;93630;-71
2023/06/10 06:30:08;;;;;;;23.45;6.25;;;;;;;;;;5035859;28;92496;-71
2023/06/10 06:32:34;;;;;;;20.17;7.10;;;;;;;;;;5035896;28;93427;-71
2023/06/10 06:35:01;;;;;;;9.20;5.95;;;;;;;;;;5035802;28;92581;-71
2023/06/10 06:37:27;;;;;;;13.45;6.13;;;;;;;;;;5039082;27;92485;-70
2023/06/10 06:39:54;;;;;;;10.48;6.22;;;;;;;;;;5035741;28;93468;-71
2023/06/10 06:42:20;;;;;;;14.40;5.53;;;;;;;;;;5036462;28;91706;-71
2023/06/10 06:44:47;;;;;;;11.63;5.65;;;;;;;;;;5035497;28;92454;-71
2023/06/10 06:47:13;;;;;;;10.98;6.38;;;;;;;;;;5035690;28;94741;-71
2023/06/10 06:49:40;;;;;;;20.25;6.13;;;;;;;;;;5034119;28;94859;-71
2023/06/10 06:52:06;;;;;;;13.52;5.65;;;;;;;;;;5035691;27;95666;-71
2023/06/10 06:54:33;;;;;;;12.18;6.10;;;;;;;;;;5035671;28;93482;-71
2023/06/10 06:56:59;;;;;;;16.70;6.63;;;;;;;;;;5035555;28;92449;-71
2023/06/10 06:59:25;;;;;;;13.77;6.32;;;;;;;;;;5037862;28;93236;-71
2023/06/10 07:01:53;;;;;;;17.20;6.60;;;;;;;;;;5017550;28;92811;-71
2023/06/10 07:04:21;;;;;;;13.68;5.85;;;;;;;;;;5018160;28;94203;-71
2023/06/10 07:06:48;;;;;;;8.82;5.45;;;;;;;;;;5036193;28;93855;-71
2023/06/10 07:09:15;;;;;;;9.75;5.80;;;;;;;;;;5035603;27;92438;-71
2023/06/10 07:11:41;;;;;;;13.48;5.90;;;;;;;;;;5017534;28;93344;-71
2023/06/10 07:14:07;;;;;;;15.85;6.25;;;;;;;;;;5033648;28;95212;-71
2023/06/10 07:16:34;;;;;;;9.65;6.00;;;;;;;;;;5034772;28;92444;-71
2023/06/10 07:19:00;;;;;;;9.98;6.10;;;;;;;;;;5017661;28;93198;-71
2023/06/10 07:21:30;;;;;;;14.00;5.60;;;;;;;;;;5038030;28;93423;-70
2023/06/10 07:23:56;;;;;;;12.70;5.63;;;;;;;;;;5035492;28;92407;-71
2023/06/10 07:26:23;;;;;;;13.52;6.03;;;;;;;;;;5034482;28;93746;-71
2023/06/10 07:28:49;;;;;;;12.07;4.85;;;;;;;;;;5035577;28;92376;-71
2023/06/10 07:31:16;;;;;;;14.60;5.38;;;;;;;;;;5035569;27;93643;-71
2023/06/10 07:33:43;;;;;;;11.82;6.10;;;;;;;;;;5017294;28;93328;-71
2023/06/10 07:36:09;;;;;;;20.83;6.05;;;;;;;;;;5035162;28;92685;-71
2023/06/10 07:38:36;;;;;;;15.73;5.05;;;;;;;;;;5015694;28;94934;-71
2023/06/10 07:41:03;;;;;;;9.45;5.20;;;;;;;;;;5037883;28;93685;-71
2023/06/10 07:43:29;;;;;;;12.40;5.63;;;;;;;;;;5034720;27;93258;-71
2023/06/10 07:45:55;;;;;;;8.95;4.93;;;;;;;;;;5017069;28;94491;-71
2023/06/10 07:48:22;;;;;;;16.23;5.20;;;;;;;;;;5015072;28;92941;-71
2023/06/10 07:50:48;;;;;;;25.33;5.97;;;;;;;;;;5014770;28;92384;-71
2023/06/10 07:53:14;;;;;;;13.55;5.38;;;;;;;;;;5013900;28;92809;-71
2023/06/10 07:55:41;;;;;;;9.18;5.30;;;;;;;;;;5015163;28;91764;-71
2023/06/10 07:58:07;;;;;;;11.93;5.13;;;;;;;;;;5015051;28;93550;-71
2023/06/10 08:00:33;;;;;;;10.10;5.88;;;;;;;;;;5014286;28;93553;-72
2023/06/10 08:03:00;;;;;;;16.23;6.35;;;;;;;;;;5016185;28;95159;-72
2023/06/10 08:05:27;;;;;;;12.15;5.57;;;;;;;;;;5014318;28;93505;-72
2023/06/10 08:07:53;;;;;;;8.48;5.53;;;;;;;;;;5014484;28;92490;-72
2023/06/10 08:10:19;;;;;;;9.68;4.93;;;;;;;;;;5014308;28;93529;-71
2023/06/10 08:12:46;;;;;;;16.23;5.43;;;;;;;;;;5013836;28;93595;-73
2023/06/10 08:15:12;;;;;;;13.82;5.72;;;;;;;;;;4980127;28;92455;-70
2023/06/10 08:17:39;;;;;;;10.43;4.85;;;;;;;;;;5028465;28;92430;-70
2023/06/10 08:20:06;;;;;;;14.18;5.75;;;;;;;;;;5035100;27;93698;-71
2023/06/10 08:22:33;;;;;;;17.05;5.50;;;;;;;;;;5034280;27;92437;-71
2023/06/10 08:25:00;;;;;;;9.30;4.85;;;;;;;;;;5037081;27;93393;-71
2023/06/10 08:27:26;;;;;;;11.65;4.90;;;;;;;;;;5032081;27;94855;-71
2023/06/10 08:29:52;;;;;;;12.40;5.20;;;;;;;;;;5034046;27;95629;-71
2023/06/10 08:32:19;;;;;;;18.63;5.18;;;;;;;;;;5034269;28;94524;-71
2023/06/10 08:34:45;;;;;;;9.80;4.75;;;;;;;;;;5034344;28;92414;-71
2023/06/10 08:37:11;;;;;;;7.40;4.93;;;;;;;;;;5034499;27;94151;-71
2023/06/10 08:39:38;;;;;;;9.23;4.68;;;;;;;;;;5034029;28;93444;-71
2023/06/10 08:42:09;;;;;;;12.82;4.70;;;;;;;;;;5033829;28;92434;-71
2023/06/10 08:44:38;;;;;;;12.13;4.53;;;;;;;;;;5035253;28;96094;-71
2023/06/10 08:47:12;;;;;;;12.00;4.68;;;;;;;;;;5018714;28;93478;-71
2023/06/10 08:49:41;;;;;;;12.25;4.68;;;;;;;;;;5034402;28;94356;-71
2023/06/10 08:52:08;;;;;;;10.10;4.38;;;;;;;;;;5013887;28;96025;-71
2023/06/10 08:54:37;;;;;;;12.45;4.80;;;;;;;;;;5016328;28;92477;-70
2023/06/10 08:57:05;;;;;;;10.27;4.68;;;;;;;;;;5034141;28;93138;-71
2023/06/10 08:59:31;;;;;;;14.15;4.18;;;;;;;;;;5033732;28;93539;-71
2023/06/10 09:01:59;;;;;;;8.32;4.90;;;;;;;;;;5033579;28;92455;-70
2023/06/10 09:04:26;;;;;;;11.63;4.43;;;;;;;;;;5033969;28;93054;-70
2023/06/10 09:06:53;;;;;;;8.45;4.35;;;;;;;;;;5034034;27;94456;-71
2023/06/10 09:09:20;;;;;;;10.55;4.30;;;;;;;;;;5035818;28;92004;-71
2023/06/10 09:11:46;;;;;;;5.50;3.90;;;;;;;;;;5033489;28;93472;-71
2023/06/10 09:14:13;;;;;;;11.70;4.78;;;;;;;;;;5033533;28;92432;-71
2023/06/10 09:16:40;;;;;;;6.90;4.00;;;;;;;;;;5032038;28;94960;-71
2023/06/10 09:19:10;;;;;;;9.35;4.40;;;;;;;;;;5033772;28;94549;-71
2023/06/10 09:21:36;;;;;;;9.47;4.80;;;;;;;;;;5033446;27;94308;-71
2023/06/10 09:24:03;;;;;;;7.05;4.10;;;;;;;;;;5036898;28;94682;-71
2023/06/10 09:26:30;;;;;;;11.68;4.28;;;;;;;;;;5036758;28;93547;-71
2023/06/10 09:29:06;;;;;;;13.60;4.28;;;;;;;;;;5037275;27;92417;-71
2023/06/10 09:31:36;;;;;;;14.68;4.57;;;;;;;;;;5040213;28;93326;-71
2023/06/10 09:34:09;;;;;;;13.85;4.70;;;;;;;;;;5037187;27;91773;-71
2023/06/10 09:36:36;;;;;;;10.02;4.13;;;;;;;;;;5036885;28;92558;-71
2023/06/10 09:39:02;;;;;;;10.82;4.78;;;;;;;;;;5036837;28;93467;-71
2023/06/10 09:41:33;;;;;;;10.27;4.25;;;;;;;;;;5017578;28;94937;-71
2023/06/10 09:43:59;;;;;;;8.43;4.80;;;;;;;;;;5036600;27;95425;-71
2023/06/10 09:46:30;;;;;;;10.07;4.75;;;;;;;;;;5036483;27;92497;-71
2023/06/10 09:48:57;;;;;;;10.68;4.72;;;;;;;;;;5036805;28;92517;-71
2023/06/10 09:51:24;;;;;;;5.22;3.78;;;;;;;;;;5037507;27;93013;-71
2023/06/10 09:53:53;;;;;;;6.38;3.95;;;;;;;;;;5036955;28;92483;-71
2023/06/10 09:56:20;;;;;;;12.77;4.38;;;;;;;;;;5036296;28;93219;-71
2023/06/10 09:58:47;;;;;;;15.10;4.38;;;;;;;;;;5037038;27;93023;-71
2023/06/10 10:01:14;;;;;;;5.32;3.55;;;;;;;;;;5036012;28;92514;-71
2023/06/10 10:03:45;;;;;;;8.57;4.00;;;;;;;;;;5036776;28;93111;-71
2023/06/10 10:06:11;;;;;;;8.98;4.05;;;;;;;;;;5034341;28;96054;-71
2023/06/10 10:08:38;;;;;;;15.82;4.63;;;;;;;;;;5036894;28;92680;-71
2023/06/10 10:11:04;;;;;;;21.95;4.35;;;;;;;;;;5036583;28;93298;-71
2023/06/10 10:13:33;;;;;;;10.25;4.10;;;;;;;;;;5039442;27;93876;-71
2023/06/10 10:16:01;;;;;;;8.85;4.45;;;;;;;;;;5036042;27;92906;-71
2023/06/10 10:18:30;;;;;;;15.73;4.20;;;;;;;;;;5035896;27;93433;-71
2023/06/10 10:21:01;;;;;;;6.35;4.03;;;;;;;;;;5036213;28;92554;-71
2023/06/10 10:23:34;;;;;;;14.52;4.18;;;;;;;;;;5036418;28;93246;-71
2023/06/10 10:26:04;;;;;;;7.28;3.90;;;;;;;;;;5035627;27;93294;-71
2023/06/10 10:28:37;;;;;;;6.25;3.95;;;;;;;;;;5036114;27;92681;-71
2023/06/10 10:31:08;;;;;;;11.13;3.85;;;;;;;;;;5034912;28;94900;-71
2023/06/10 10:33:45;;;;;;;10.65;3.90;;;;;;;;;;5035421;27;93699;-72
2023/06/10 10:36:13;;;;;;;8.02;4.07;;;;;;;;;;5038787;28;92485;-71
2023/06/10 10:38:40;;;;;;;5.70;3.10;;;;;;;;;;5035353;27;93433;-71
2023/06/10 10:41:07;;;;;;;11.75;3.92;;;;;;;;;;5035862;28;92485;-71
2023/06/10 10:43:33;;;;;;;4.60;3.47;;;;;;;;;;5035921;28;93640;-71
2023/06/10 10:46:00;;;;;;;7.10;3.80;;;;;;;;;;5036119;28;93282;-71
2023/06/10 10:48:33;;;;;;;7.65;4.15;;;;;;;;;;5036766;28;91921;-71
2023/06/10 10:50:59;;;;;;;8.80;4.00;;;;;;;;;;5035639;28;92425;-71
2023/06/10 10:53:25;;;;;;;6.03;3.63;;;;;;;;;;5035553;28;93493;-72
2023/06/10 10:56:18;;;;;;;7.10;3.53;;;;;;;;;;5034310;28;94825;-72
2023/06/10 10:59:04;;;;;;;7.25;3.78;;;;;;;;;;5033618;27;95621;-72
2023/06/10 11:01:40;;;;;;;9.73;3.83;;;;;;;;;;5035595;27;92457;-73
2023/06/10 11:04:09;;;;;;;12.77;4.03;;;;;;;;;;5036139;28;94240;-72
2023/06/10 11:06:35;;;;;;;5.38;3.60;;;;;;;;;;5017546;28;93696;-72
2023/06/10 11:09:21;;;;;;;8.13;3.67;;;;;;;;;;5035572;28;92425;-72
2023/06/10 11:11:50;;;;;;;7.13;4.07;;;;;;;;;;5035176;28;93432;-72
2023/06/10 11:14:27;;;;;;;5.57;4.00;;;;;;;;;;5035679;27;92751;-72
2023/06/10 11:16:56;;;;;;;8.25;3.80;;;;;;;;;;5035161;28;92433;-72
2023/06/10 11:19:36;;;;;;;5.72;3.72;;;;;;;;;;5035879;27;94113;-72
2023/06/10 11:22:06;;;;;;;5.93;3.63;;;;;;;;;;5018933;28;96918;-72
2023/06/10 11:24:32;;;;;;;12.90;3.55;;;;;;;;;;5034920;28;95578;-72
2023/06/10 11:27:16;;;;;;;23.45;4.10;;;;;;;;;;5033828;28;94604;-72
2023/06/10 11:29:57;;;;;;;9.85;3.50;;;;;;;;;;5034078;28;92510;-72
2023/06/10 11:32:28;;;;;;;11.75;3.95;;;;;;;;;;5034877;27;93290;-72
2023/06/10 11:34:55;;;;;;;10.35;3.65;;;;;;;;;;5035106;28;93640;-72
2023/06/10 11:37:22;;;;;;;12.32;4.20;;;;;;;;;;5035354;28;92471;-72
2023/06/10 11:39:52;;;;;;;8.25;3.42;;;;;;;;;;5036057;28;94257;-72
2023/06/10 11:42:19;;;;;;;9.27;3.78;;;;;;;;;;5034893;28;94649;-72
2023/06/10 11:44:48;;;;;;;6.18;3.65;;;;;;;;;;5037978;28;92406;-72
2023/06/10 11:47:15;;;;;;;;;;;;;;;;;;5033084;27;96008;-71
2023/06/10 11:49:41;;;;;;;11.50;3.50;;;;;;;;;;5035728;28;118650;-72
2023/06/10 11:52:11;;;;;;;11.35;3.75;;;;;;;;;;5035141;28;94413;-72
2023/06/10 11:54:38;;;;;;;3.60;3.30;;;;;;;;;;5035426;28;92377;-72
2023/06/10 11:57:04;;;;;;;9.57;4.13;;;;;;;;;;5034531;28;92404;-72
2023/06/10 11:59:31;;;;;;;10.30;3.35;;;;;;;;;;5034724;28;93626;-72
2023/06/10 12:01:58;;;;;;;9.63;3.92;;;;;;;;;;5016677;28;94406;-72
2023/06/10 12:04:25;;;;;;;9.02;3.83;;;;;;;;;;5038096;27;91742;-72
2023/06/10 12:06:52;;;;;;;10.40;3.90;;;;;;;;;;5034438;28;93941;-72
2023/06/10 12:09:19;;;;;;;8.77;3.90;;;;;;;;;;5016602;28;92453;-72
2023/06/10 12:11:58;;;;;;;9.20;3.88;;;;;;;;;;5032895;28;94896;-72
2023/06/10 12:14:43;;;;;;;6.65;3.92;;;;;;;;;;5016607;28;94927;-72
2023/06/10 12:17:10;;;;;;;5.82;3.70;;;;;;;;;;5034185;27;92480;-72
2023/06/10 12:19:39;;;;;;;12.57;3.70;;;;;;;;;;5034569;28;93322;-71
2023/06/10 12:22:06;;;;;;;6.85;4.32;;;;;;;;;;5034275;28;94246;-72
2023/06/10 12:24:33;;;;;;;6.97;3.40;;;;;;;;;;5034931;28;92464;-72
2023/06/10 12:26:59;;;;;;;9.15;3.53;;;;;;;;;;5037139;28;94401;-72
2023/06/10 12:29:26;;;;;;;9.50;3.75;;;;;;;;;;5034821;28;91836;-73
2023/06/10 12:31:52;;;;;;;7.18;3.80;;;;;;;;;;5034586;27;93531;-72
2023/06/10 12:34:18;;;;;;;10.10;3.35;;;;;;;;;;5034106;28;93821;-72
2023/06/10 12:36:51;;;;;;;6.32;3.80;;;;;;;;;;5032372;28;94932;-72
2023/06/10 12:39:17;;;;;;;12.05;3.97;;;;;;;;;;5034733;28;95270;-73
2023/06/10 12:41:48;;;;;;;3.80;3.38;;;;;;;;;;5034004;27;93806;-73
2023/06/10 12:44:14;;;;;;;13.68;3.42;;;;;;;;;;5016323;28;92468;-73
2023/06/10 12:46:41;;;;;;;6.20;3.97;;;;;;;;;;5033867;27;93449;-72
2023/06/10 12:49:08;;;;;;;7.07;3.70;;;;;;;;;;5036850;27;93526;-72
2023/06/10 12:51:35;;;;;;;12.70;4.30;;;;;;;;;;5034085;28;93423;-72
2023/06/10 12:54:02;;;;;;;11.57;3.90;;;;;;;;;;5034521;28;93685;-72
2023/06/10 12:56:28;;;;;;;6.00;3.88;;;;;;;;;;5033589;28;92446;-72
2023/06/10 12:58:55;;;;;;;6.80;3.50;;;;;;;;;;5033301;28;93182;-73
2023/06/10 13:01:21;;;;;;;13.13;4.10;;;;;;;;;;5031796;28;95813;-73
2023/06/10 13:03:47;;;;;;;4.93;3.25;;;;;;;;;;5033748;28;92558;-73
2023/06/10 13:06:14;;;;;;;6.00;4.10;;;;;;;;;;5033744;28;93167;-73
2023/06/10 13:08:41;;;;;;;9.10;3.78;;;;;;;;;;5033558;28;94002;-72
2023/06/10 13:11:07;;;;;;;9.18;3.90;;;;;;;;;;5036893;28;92459;-72
2023/06/10 13:13:37;;;;;;;12.38;3.90;;;;;;;;;;5033233;27;93686;-73
2023/06/10 13:16:03;;;;;;;6.97;3.50;;;;;;;;;;5033656;28;92515;-72
2023/06/10 13:18:29;;;;;;;10.52;3.83;;;;;;;;;;5033644;28;93199;-72
2023/06/10 13:20:56;;;;;;;6.90;3.80;;;;;;;;;;5033994;28;95713;-72
2023/06/10 13:23:22;;;;;;;8.85;3.72;;;;;;;;;;5033072;27;92459;-72
2023/06/10 13:25:48;;;;;;;10.70;4.07;;;;;;;;;;5031427;28;96131;-72
2023/06/10 13:28:15;;;;;;;6.07;3.97;;;;;;;;;;5033268;28;93277;-73
2023/06/10 13:30:42;;;;;;;5.95;4.13;;;;;;;;;;5015791;28;92462;-72
2023/06/10 13:33:08;;;;;;;8.60;4.07;;;;;;;;;;5036650;28;94340;-72
2023/06/10 13:35:34;;;;;;;11.45;4.10;;;;;;;;;;5033880;28;92625;-72
2023/06/10 13:38:01;;;;;;;7.68;4.40;;;;;;;;;;5033206;28;93450;-72
2023/06/10 13:40:27;;;;;;;15.73;4.00;;;;;;;;;;5033137;28;94006;-70
2023/06/10 13:42:54;;;;;;;8.15;3.63;;;;;;;;;;5033668;28;91716;-73
2023/06/10 13:45:20;;;;;;;6.50;3.72;;;;;;;;;;5033385;27;92679;-72
2023/06/10 13:47:47;;;;;;;6.93;4.05;;;;;;;;;;5032922;28;93548;-71
2023/06/10 13:50:13;;;;;;;5.38;3.53;;;;;;;;;;5031583;28;94806;-72
2023/06/10 13:52:39;;;;;;;11.93;3.92;;;;;;;;;;5035992;28;95482;-72
2023/06/10 13:55:06;;;;;;;5.35;3.53;;;;;;;;;;5033478;27;92611;-72
2023/06/10 13:57:33;;;;;;;7.30;3.55;;;;;;;;;;5033314;28;94377;-72
2023/06/10 13:59:59;;;;;;;5.70;3.60;;;;;;;;;;5033466;28;96569;-72
2023/06/10 14:02:26;;;;;;;11.10;4.10;;;;;;;;;;5033067;28;92691;-73
2023/06/10 14:04:55;;;;;;;6.63;3.70;;;;;;;;;;5032750;28;93302;-71
2023/06/10 14:07:21;;;;;;;5.07;3.88;;;;;;;;;;5033435;27;92887;-72
2023/06/10 14:09:48;;;;;;;9.68;3.90;;;;;;;;;;5035717;27;92614;-71
2023/06/10 14:12:15;;;;;;;8.88;3.60;;;;;;;;;;5036303;28;93281;-73
2023/06/10 14:14:41;;;;;;;4.03;3.58;;;;;;;;;;5037785;28;95850;-72
2023/06/10 14:17:08;;;;;;;9.90;3.70;;;;;;;;;;5036060;27;95629;-72
2023/06/10 14:19:34;;;;;;;10.30;3.78;;;;;;;;;;5035531;28;92529;-72
2023/06/10 14:22:01;;;;;;;8.07;3.72;;;;;;;;;;5036515;27;92420;-71
2023/06/10 14:24:27;;;;;;;5.63;3.65;;;;;;;;;;5036576;28;94185;-71
2023/06/10 14:26:53;;;;;;;9.23;3.60;;;;;;;;;;5035093;28;93447;-71
2023/06/10 14:29:20;;;;;;;11.20;3.72;;;;;;;;;;5035899;28;92481;-74
2023/06/10 14:31:47;;;;;;;3.47;3.17;;;;;;;;;;5036813;28;93344;-71
2023/06/10 14:34:13;;;;;;;4.85;3.47;;;;;;;;;;5035178;27;93436;-71
2023/06/10 14:36:39;;;;;;;12.45;4.07;;;;;;;;;;5039045;27;92481;-74